ZKE weather

Kashechewan Airport
Kashechewan, Ontario, Canada

Public forecast

Using degrees Celsius for public forecast. Weather courtesy of forecast.io.

Closest aviation weather report (METAR) to Kashechewan Airport

Closest report is Attawapiskat Airport, 47.5 nm (88.0 km) NW. Retrieved 2020/05/26 06:00 UTC (41 minutes ago):

CYAT 260600Z AUTO 00000KT 9SM CLR 01/01 A3011 RMK SLP197

Closest aviation forecast (TAF) to Kashechewan Airport

Forecast is more than 12 hours old.

Closest forecast is Attawapiskat Airport, 47.5 nm (88.0 km) NW. Retrieved 2020/05/25 15:00 UTC (16 hours ago):

TAF CYAT 251439Z 2515/2519 02008KT P6SM SCT080 OVC130 BECMG 2516/2518 29008KT RMK FCST BASED ON AUTO OBS NXT FCST WILL BE ISSUED AT 260845Z